Jim Hamilton L.B. Owens Airport
KCUB : now visible

Airfield :











YOU CAN JOIN US ON...

 
LOGIN :

Register | Disclaimer

   EN    FR    IT 

 









Legend :    VFR   Marginal VFR   IFR   Intensive IFR   Very Intensive IFR
Visi :
Ceiling :
>= 8 km
>= 3000ft
5 to 8 km
1000 to 3000 ft
1500m to 5 km
500 to 1000 ft
800 to 1500m
200 to 500 ft
< 800m
< 200 ft
Symbols :   Thunderstorms  Fog  Heavy snow  Heavy precipitations  Wind > 20 kt






- Airport Elevation : 193 ft


KCUB - Jim Hamilton L.B. Owens

CURRENT METAR :
  • 010053Z AUTO VRB04KT 10SM OVC011 13/11 A2963 RMK AO2 SLP030 T01280111

EXPIRED METARs :
  • 312353Z AUTO VRB03KT 10SM OVC010 14/12 A2963 RMK AO2 CIG 009V013 SLP031 60027 T01390122 10200 20128 53003
  • 312253Z AUTO 05005KT 10SM OVC011 14/12 A2960 RMK AO2 SLP022 T01390122

TAF KCUB
Valid from the 01 at 01:00 until the 02 at 00:00 UTC


010125Z 0101/0124 35009KT P6SM OVC012
TEMPO 0102/0106 -RA
FM010600 32012G18KT P6SM VCSH BKN020
FM011000 33010G15KT P6SM BKN040
FM012000 34008KT P6SM SCT050



MET'MAP, your aeronautical weather chart ! - Copyright ORBIFLY December 2007 - Disclaimer

ORBIFLY MET'MAP TEAM :

Programming & Development : Alexandra Zaïnal
Concept & original design : Baudouin d'Aumeries
Assistance for programming : Marc-Olivier Méhu
Technical & hardware support : Manuel Goepfert

Contact : metmap@orbifly.com




SOURCES & CREDITS :

   NOAA       Earth
Advisory